createdAt,value
2023-01-07T00:01:00.288Z,101196.09
2023-01-07T00:03:27.127Z,101196.94
2023-01-07T00:05:57.931Z,101207.28
2023-01-07T00:08:24.329Z,101199.34
2023-01-07T00:10:53.657Z,101206.28
2023-01-07T00:13:19.991Z,101197.31
2023-01-07T00:15:46.460Z,101193.75
2023-01-07T00:18:13.045Z,101196.81
2023-01-07T00:20:39.445Z,101196.00
2023-01-07T00:23:05.854Z,101197.00
2023-01-07T00:25:32.210Z,101191.41
2023-01-07T00:27:58.580Z,101185.53
2023-01-07T00:30:24.946Z,101185.88
2023-01-07T00:33:13.119Z,101190.44
2023-01-07T00:35:40.943Z,101187.56
2023-01-07T00:38:07.873Z,101184.38
2023-01-07T00:40:34.276Z,101184.94
2023-01-07T00:43:07.027Z,101174.63
2023-01-07T00:45:34.698Z,101178.44
2023-01-07T00:48:01.837Z,101181.69
2023-01-07T00:50:32.281Z,101174.75
2023-01-07T00:52:58.634Z,101168.72
2023-01-07T00:55:25.517Z,101165.44
2023-01-07T00:57:52.199Z,101165.81
2023-01-07T01:00:19.603Z,101161.94
2023-01-07T01:02:46.316Z,101160.25
2023-01-07T01:05:13.067Z,101158.22
2023-01-07T01:07:39.570Z,101158.06
2023-01-07T01:10:07.123Z,101147.41
2023-01-07T01:12:35.263Z,101142.97
2023-01-07T01:15:06.665Z,101141.97
2023-01-07T01:17:33.177Z,101147.41
2023-01-07T01:19:59.604Z,101143.16
2023-01-07T01:22:26.073Z,101137.94
2023-01-07T01:24:52.626Z,101141.03
2023-01-07T01:27:19.224Z,101137.94
2023-01-07T01:29:48.234Z,101130.28
2023-01-07T01:32:14.664Z,101134.41
2023-01-07T01:34:40.998Z,101131.97
2023-01-07T01:37:07.337Z,101139.81
2023-01-07T01:39:33.768Z,101137.66
2023-01-07T01:42:00.130Z,101148.84
2023-01-07T01:44:45.428Z,101147.50
2023-01-07T01:47:16.128Z,101130.31
2023-01-07T01:49:47.770Z,101137.75
2023-01-07T01:52:16.632Z,101135.22
2023-01-07T01:54:45.421Z,101136.25
2023-01-07T01:57:11.828Z,101142.31
2023-01-07T01:59:40.602Z,101139.16
2023-01-07T02:02:07.221Z,101144.25
2023-01-07T02:04:33.794Z,101135.31
2023-01-07T02:07:04.701Z,101138.72
2023-01-07T02:09:31.125Z,101129.75
2023-01-07T02:12:06.645Z,101129.47
2023-01-07T02:14:42.188Z,101124.56
2023-01-07T02:17:08.487Z,101134.22
2023-01-07T02:19:38.022Z,101128.81
2023-01-07T02:22:14.383Z,101123.41
2023-01-07T02:24:40.808Z,101118.53
2023-01-07T02:27:07.186Z,101125.78
2023-01-07T02:29:52.076Z,101121.22
2023-01-07T02:32:38.756Z,101119.03
2023-01-07T02:35:12.907Z,101117.38
2023-01-07T02:37:39.289Z,101111.81
2023-01-07T02:40:24.525Z,101112.31
2023-01-07T02:43:00.188Z,101116.66
2023-01-07T02:45:26.572Z,101112.59
2023-01-07T02:48:05.130Z,101106.72
2023-01-07T02:50:31.464Z,101107.00
2023-01-07T02:52:59.538Z,101104.50
2023-01-07T02:55:44.267Z,101102.81
2023-01-07T02:58:16.745Z,101102.34
2023-01-07T03:01:02.055Z,101099.81
2023-01-07T03:03:31.214Z,101089.34
2023-01-07T03:06:22.524Z,101087.66
2023-01-07T03:08:48.907Z,101084.75
2023-01-07T03:11:16.347Z,101085.78
2023-01-07T03:14:03.196Z,101081.88
2023-01-07T03:16:33.427Z,101081.06
2023-01-07T03:19:01.458Z,101079.69
2023-01-07T03:21:29.623Z,101080.50
2023-01-07T03:23:56.637Z,101079.69
2023-01-07T03:26:26.832Z,101079.00
2023-01-07T03:28:54.197Z,101075.09
2023-01-07T03:31:21.875Z,101073.25
2023-01-07T03:34:07.266Z,101069.03
2023-01-07T03:36:36.267Z,101056.53
2023-01-07T03:39:02.733Z,101058.47
2023-01-07T03:41:47.621Z,101057.25
2023-01-07T03:44:14.018Z,101048.63
2023-01-07T03:46:40.534Z,101057.59
2023-01-07T03:49:06.857Z,101044.38
2023-01-07T03:51:33.178Z,101051.13
2023-01-07T03:53:59.483Z,101062.94
2023-01-07T03:56:25.836Z,101055.34
2023-01-07T03:58:52.201Z,101060.22
2023-01-07T04:01:18.614Z,101048.00
2023-01-07T04:03:45.052Z,101050.53
2023-01-07T04:06:11.378Z,101045.97
2023-01-07T04:08:37.862Z,101045.44
2023-01-07T04:11:04.370Z,101040.88
2023-01-07T04:13:30.772Z,101040.88
2023-01-07T04:15:57.199Z,101030.22
2023-01-07T04:18:23.564Z,101032.59
2023-01-07T04:20:49.980Z,101019.53
2023-01-07T04:23:16.610Z,101022.25
2023-01-07T04:25:45.902Z,101020.19
2023-01-07T04:28:12.406Z,101020.88
2023-01-07T04:30:38.852Z,101023.22
2023-01-07T04:33:05.839Z,101015.09
2023-01-07T04:35:32.517Z,101018.44
2023-01-07T04:37:59.340Z,101013.50
2023-01-07T04:40:25.912Z,101012.66
2023-01-07T04:42:52.292Z,101006.88
2023-01-07T04:45:18.680Z,101004.00
2023-01-07T04:47:45.143Z,101013.16
2023-01-07T04:50:11.446Z,101004.84
2023-01-07T04:52:37.788Z,101003.16
2023-01-07T04:55:04.438Z,100994.03
2023-01-07T04:57:30.883Z,100991.31
2023-01-07T04:59:57.213Z,100985.22
2023-01-07T05:02:23.569Z,100984.19
2023-01-07T05:04:50.132Z,100987.56
2023-01-07T05:07:16.562Z,100989.06
2023-01-07T05:09:42.978Z,100983.84
2023-01-07T05:12:09.346Z,100976.38
2023-01-07T05:14:35.741Z,100975.66
2023-01-07T05:17:02.172Z,100974.44
2023-01-07T05:19:28.549Z,100972.59
2023-01-07T05:21:54.901Z,100970.88
2023-01-07T05:24:21.277Z,100971.72
2023-01-07T05:26:47.670Z,100964.66
2023-01-07T05:29:14.051Z,100950.94
2023-01-07T05:31:41.065Z,100961.75
2023-01-07T05:34:07.425Z,100966.78
2023-01-07T05:36:33.854Z,100954.63
2023-01-07T05:39:00.205Z,100954.63
2023-01-07T05:41:26.663Z,100956.63
2023-01-07T05:43:53.011Z,100951.38
2023-01-07T05:46:19.459Z,100953.91
2023-01-07T05:48:45.892Z,100951.19
2023-01-07T05:51:12.264Z,100947.81
2023-01-07T05:53:38.601Z,100937.00
2023-01-07T05:56:05.122Z,100936.34
2023-01-07T05:58:31.521Z,100936.63
2023-01-07T06:00:57.928Z,100941.41
2023-01-07T06:03:24.384Z,100939.34
2023-01-07T06:05:50.948Z,100941.22
2023-01-07T06:08:17.289Z,100936.00
2023-01-07T06:10:44.400Z,100927.88
2023-01-07T06:13:10.755Z,100928.59
2023-01-07T06:15:37.249Z,100929.28
2023-01-07T06:18:03.681Z,100927.56
2023-01-07T06:20:34.386Z,100923.66
2023-01-07T06:23:02.663Z,100922.16
2023-01-07T06:25:29.302Z,100923.84
2023-01-07T06:27:58.479Z,100910.03
2023-01-07T06:30:25.143Z,100912.06
2023-01-07T06:32:51.547Z,100916.84
2023-01-07T06:35:17.939Z,100915.81
2023-01-07T06:37:44.444Z,100912.06
2023-01-07T06:40:12.017Z,100906.38
2023-01-07T06:42:40.453Z,100909.75
2023-01-07T06:45:07.039Z,100909.94
2023-01-07T06:47:33.529Z,100909.09
2023-01-07T06:49:59.935Z,100908.16
2023-01-07T06:52:26.318Z,100902.91
2023-01-07T06:54:52.660Z,100907.13
2023-01-07T06:57:18.984Z,100897.97
2023-01-07T06:59:45.318Z,100895.25
2023-01-07T07:02:17.607Z,100898.63
2023-01-07T07:04:43.986Z,100898.25
2023-01-07T07:07:10.395Z,100896.22
2023-01-07T07:09:36.756Z,100898.72
2023-01-07T07:12:03.146Z,100856.81
2023-01-07T07:14:29.494Z,100891.06
2023-01-07T07:16:55.841Z,100886.34
2023-01-07T07:19:22.214Z,100893.78
2023-01-07T07:21:48.711Z,100877.53
2023-01-07T07:24:15.083Z,100877.16
2023-01-07T07:26:41.476Z,100878.47
2023-01-07T07:29:09.104Z,100879.50
2023-01-07T07:31:35.957Z,100879.50
2023-01-07T07:34:02.430Z,100871.75
2023-01-07T07:36:28.786Z,100875.50
2023-01-07T07:38:55.190Z,100876.50
2023-01-07T07:41:22.689Z,100872.13
2023-01-07T07:43:49.587Z,100868.75
2023-01-07T07:46:16.004Z,100861.41
2023-01-07T07:48:42.400Z,100858.03
2023-01-07T07:51:09.118Z,100858.03
2023-01-07T07:53:35.554Z,100850.09
2023-01-07T07:56:01.944Z,100852.34
2023-01-07T07:58:28.290Z,100853.19
2023-01-07T08:00:54.690Z,100845.72
2023-01-07T08:03:21.163Z,100846.53
2023-01-07T08:05:47.580Z,100843.19
2023-01-07T08:08:14.823Z,100835.72
2023-01-07T08:10:41.400Z,100833.19
2023-01-07T08:13:09.728Z,100834.22
2023-01-07T08:15:36.205Z,100836.94
2023-01-07T08:18:04.384Z,100834.41
2023-01-07T08:20:31.283Z,100832.75
2023-01-07T08:22:59.058Z,100821.94
2023-01-07T08:25:25.465Z,100831.72
2023-01-07T08:27:51.857Z,100826.50
2023-01-07T08:30:18.520Z,100819.03
2023-01-07T08:32:44.826Z,100826.97
2023-01-07T08:35:11.741Z,100826.13
2023-01-07T08:37:38.227Z,100822.19
2023-01-07T08:40:06.075Z,100819.47
2023-01-07T08:42:32.526Z,100823.16
2023-01-07T08:44:58.837Z,100818.38
2023-01-07T08:47:27.882Z,100816.97
2023-01-07T08:49:54.790Z,100823.03
2023-01-07T08:52:21.850Z,100823.47
2023-01-07T08:54:48.448Z,100822.09
2023-01-07T08:57:15.099Z,100808.00
2023-01-07T08:59:41.413Z,100803.03
2023-01-07T09:02:14.205Z,100799.66
2023-01-07T09:04:40.856Z,100786.78
2023-01-07T09:07:07.259Z,100782.41
2023-01-07T09:09:33.616Z,100779.91
2023-01-07T09:12:00.357Z,100788.94
2023-01-07T09:14:26.949Z,100787.50
2023-01-07T09:16:53.463Z,100781.72
2023-01-07T09:19:19.767Z,100786.09
2023-01-07T09:21:46.133Z,100779.66
2023-01-07T09:24:12.621Z,100782.38
2023-01-07T09:26:39.014Z,100769.28
2023-01-07T09:29:05.405Z,100773.88
2023-01-07T09:31:31.792Z,100762.38
2023-01-07T09:33:58.171Z,100759.22
2023-01-07T09:36:24.608Z,100751.75
2023-01-07T09:38:50.986Z,100748.38
2023-01-07T09:41:23.405Z,100750.66
2023-01-07T09:44:01.086Z,100749.97
2023-01-07T09:46:29.255Z,100741.03
2023-01-07T09:48:58.063Z,100738.72
2023-01-07T09:51:31.544Z,100741.66
2023-01-07T09:54:00.430Z,100740.84
2023-01-07T09:56:28.430Z,100741.22
2023-01-07T09:58:56.217Z,100738.53
2023-01-07T10:01:38.058Z,100742.00
2023-01-07T10:04:31.579Z,100748.88
2023-01-07T10:07:07.299Z,100743.75
2023-01-07T10:09:33.587Z,100742.59
2023-01-07T10:12:06.093Z,100734.41
2023-01-07T10:14:32.468Z,100728.16
2023-01-07T10:17:07.577Z,100727.56
2023-01-07T10:19:43.254Z,100723.84
2023-01-07T10:22:19.899Z,100724.84
2023-01-07T10:25:01.510Z,100726.59
2023-01-07T10:27:33.933Z,100713.91
2023-01-07T10:30:21.575Z,100730.78
2023-01-07T10:32:49.919Z,100715.19
2023-01-07T10:35:20.493Z,100709.63
2023-01-07T10:37:46.945Z,100703.00
2023-01-07T10:40:19.307Z,100699.44
2023-01-07T10:43:06.296Z,100700.91
2023-01-07T10:45:41.637Z,100692.97
2023-01-07T10:48:11.885Z,100685.69
2023-01-07T10:50:38.177Z,100693.16
2023-01-07T10:53:23.839Z,100682.47
2023-01-07T10:56:03.316Z,100682.47
2023-01-07T10:58:36.650Z,100672.88
2023-01-07T11:01:03.123Z,100673.06
2023-01-07T11:03:29.836Z,100659.47
2023-01-07T11:05:59.520Z,100661.16
2023-01-07T11:08:29.075Z,100645.28
2023-01-07T11:10:57.461Z,100640.06
2023-01-07T11:13:32.927Z,100644.25
2023-01-07T11:16:08.868Z,100642.81
2023-01-07T11:18:35.260Z,100637.78
2023-01-07T11:21:02.356Z,100629.91
2023-01-07T11:23:33.532Z,100612.81
2023-01-07T11:26:18.793Z,100612.81
2023-01-07T11:28:51.928Z,100612.81
2023-01-07T11:31:19.344Z,100599.53
2023-01-07T11:34:02.207Z,100597.91
2023-01-07T11:36:42.996Z,100593.72
2023-01-07T11:39:11.693Z,100583.69
2023-01-07T11:41:50.620Z,100572.88
2023-01-07T11:44:17.005Z,100567.13
2023-01-07T11:46:44.126Z,100565.47
2023-01-07T11:49:18.971Z,100558.81
2023-01-07T11:51:45.427Z,100554.44
2023-01-07T11:54:19.923Z,100549.25
2023-01-07T11:56:46.375Z,100541.78
2023-01-07T11:59:15.552Z,100532.63
2023-01-07T12:01:49.350Z,100534.50
2023-01-07T12:04:30.854Z,100523.06
2023-01-07T12:07:02.365Z,100515.56
2023-01-07T12:09:34.493Z,100510.19
2023-01-07T12:12:28.788Z,100503.31
2023-01-07T12:14:55.705Z,100499.16
2023-01-07T12:17:24.531Z,100497.50
2023-01-07T12:19:54.013Z,100491.47
2023-01-07T12:22:30.039Z,100484.97
2023-01-07T12:25:04.919Z,100476.66
2023-01-07T12:27:36.607Z,100476.44
2023-01-07T12:30:13.873Z,100476.03
2023-01-07T12:32:55.302Z,100474.59
2023-01-07T12:35:26.565Z,100471.44
2023-01-07T12:37:58.718Z,100472.06
2023-01-07T12:40:28.159Z,100458.91
2023-01-07T12:43:02.319Z,100457.06
2023-01-07T12:45:49.096Z,100452.69
2023-01-07T12:48:20.915Z,100441.38
2023-01-07T12:50:50.118Z,100441.38
2023-01-07T12:53:24.831Z,100431.97
2023-01-07T12:55:56.952Z,100435.72
2023-01-07T12:58:23.368Z,100420.50
2023-01-07T13:01:17.311Z,100425.28
2023-01-07T13:03:46.922Z,100418.63
2023-01-07T13:06:42.461Z,100415.94
2023-01-07T13:09:08.884Z,100414.28
2023-01-07T13:11:57.162Z,100401.34
2023-01-07T13:14:36.139Z,100419.31
2023-01-07T13:17:24.431Z,100402.59
2023-01-07T13:19:51.089Z,100403.00
2023-01-07T13:22:40.818Z,100399.47
2023-01-07T13:25:35.719Z,100410.13
2023-01-07T13:28:13.990Z,100415.13
2023-01-07T13:30:47.871Z,100407.19
2023-01-07T13:33:27.329Z,100405.53
2023-01-07T13:36:01.556Z,100396.53
2023-01-07T13:38:41.765Z,100396.13
2023-01-07T13:41:15.303Z,100391.72
2023-01-07T13:43:44.954Z,100391.72
2023-01-07T13:46:17.254Z,100382.34
2023-01-07T13:48:50.284Z,100380.06
2023-01-07T13:51:24.552Z,100384.66
2023-01-07T13:53:51.044Z,100381.94
2023-01-07T13:56:17.457Z,100350.78
2023-01-07T13:58:46.809Z,100376.31
2023-01-07T14:01:13.273Z,100367.53
2023-01-07T14:03:41.578Z,100367.53
2023-01-07T14:06:20.165Z,100367.94
2023-01-07T14:08:50.455Z,100359.16
2023-01-07T14:11:18.735Z,100365.59
2023-01-07T14:13:47.190Z,100358.91
2023-01-07T14:16:20.461Z,100372.25
2023-01-07T14:19:01.781Z,100365.19
2023-01-07T14:21:31.266Z,100355.38
2023-01-07T14:23:57.796Z,100360.38
2023-01-07T14:26:47.265Z,100360.16
2023-01-07T14:29:31.049Z,100353.28
2023-01-07T14:32:16.338Z,100345.13
2023-01-07T14:34:52.248Z,100346.13
2023-01-07T14:37:28.374Z,100349.88
2023-01-07T14:39:54.707Z,100352.59
2023-01-07T14:42:27.139Z,100344.91
2023-01-07T14:44:53.851Z,100342.41
2023-01-07T14:47:38.883Z,100351.75
2023-01-07T14:50:14.339Z,100335.66
2023-01-07T14:52:57.930Z,100340.00
2023-01-07T14:55:34.142Z,100340.00
2023-01-07T14:58:22.168Z,100330.81
2023-01-07T15:00:54.754Z,100334.13
2023-01-07T15:03:21.231Z,100334.28
2023-01-07T15:05:50.317Z,100337.22
2023-01-07T15:08:40.205Z,100338.03
2023-01-07T15:11:26.662Z,100331.97
2023-01-07T15:14:15.532Z,100321.72
2023-01-07T15:16:42.771Z,100328.38
2023-01-07T15:19:09.398Z,100335.25
2023-01-07T15:21:52.078Z,100327.31
2023-01-07T15:24:24.218Z,100323.56
2023-01-07T15:27:00.424Z,100317.31
2023-01-07T15:29:45.685Z,100311.22
2023-01-07T15:32:21.071Z,100302.09
2023-01-07T15:34:47.464Z,100303.31
2023-01-07T15:37:15.180Z,100295.81
2023-01-07T15:39:46.772Z,100293.72
2023-01-07T15:42:17.508Z,100285.59
2023-01-07T15:44:44.093Z,100291.59
2023-01-07T15:47:30.114Z,100283.47
2023-01-07T15:49:56.522Z,100276.41
2023-01-07T15:52:25.109Z,100278.00
2023-01-07T15:54:51.491Z,100276.56
2023-01-07T15:57:25.917Z,100269.91
2023-01-07T15:59:53.237Z,100273.84
2023-01-07T16:02:19.688Z,100266.13
2023-01-07T16:04:48.672Z,100262.81
2023-01-07T16:07:20.584Z,100250.28
2023-01-07T16:09:47.064Z,100247.72
2023-01-07T16:12:20.403Z,100255.59
2023-01-07T16:14:46.789Z,100245.63
2023-01-07T16:17:16.513Z,100246.84
2023-01-07T16:19:42.943Z,100241.06
2023-01-07T16:22:13.485Z,100244.38
2023-01-07T16:24:45.072Z,100242.06
2023-01-07T16:27:11.531Z,100230.44
2023-01-07T16:29:40.208Z,100229.97
2023-01-07T16:32:07.160Z,100231.69
2023-01-07T16:34:33.477Z,100237.69
2023-01-07T16:37:00.536Z,100228.53
2023-01-07T16:39:32.073Z,100227.53
2023-01-07T16:42:16.956Z,100219.03
2023-01-07T16:44:44.280Z,100214.22
2023-01-07T16:47:14.959Z,100209.06
2023-01-07T16:49:41.287Z,100216.63
2023-01-07T16:52:14.115Z,100211.00
2023-01-07T16:54:42.527Z,100208.09
2023-01-07T16:57:11.941Z,100209.13
2023-01-07T16:59:43.134Z,100200.19
2023-01-07T17:02:18.317Z,100196.44
2023-01-07T17:04:45.458Z,100198.75
2023-01-07T17:07:20.732Z,100217.69
2023-01-07T17:09:47.224Z,100218.72
2023-01-07T17:12:40.053Z,100206.63
2023-01-07T17:15:25.215Z,100209.72
2023-01-07T17:17:51.601Z,100205.72
2023-01-07T17:20:22.373Z,100209.63
2023-01-07T17:22:52.267Z,100224.56
2023-01-07T17:25:21.737Z,100219.63
2023-01-07T17:27:50.884Z,100217.97
2023-01-07T17:30:18.926Z,100214.63
2023-01-07T17:32:46.620Z,100208.59
2023-01-07T17:35:17.884Z,100215.91
2023-01-07T17:37:44.342Z,100216.13
2023-01-07T17:40:11.114Z,100213.84
2023-01-07T17:42:56.062Z,100208.63
2023-01-07T17:45:22.431Z,100214.31
2023-01-07T17:47:49.657Z,100210.75
2023-01-07T17:50:17.566Z,100204.09
2023-01-07T17:52:45.594Z,100194.53
2023-01-07T17:55:31.164Z,100190.78
2023-01-07T17:57:58.034Z,100187.88
2023-01-07T18:00:25.954Z,100191.84
2023-01-07T18:02:52.412Z,100192.84
2023-01-07T18:05:20.566Z,100181.66
2023-01-07T18:07:47.065Z,100174.16
2023-01-07T18:10:14.462Z,100182.91
2023-01-07T18:12:41.300Z,100182.50
2023-01-07T18:15:17.288Z,100170.91
2023-01-07T18:17:44.261Z,100178.59
2023-01-07T18:20:10.874Z,100170.50
2023-01-07T18:22:37.361Z,100168.41
2023-01-07T18:25:04.085Z,100161.75
2023-01-07T18:27:30.446Z,100152.16
2023-01-07T18:29:56.815Z,100141.97
2023-01-07T18:32:23.164Z,100136.78
2023-01-07T18:34:49.480Z,100133.06
2023-01-07T18:37:17.643Z,100138.88
2023-01-07T18:39:43.966Z,100130.97
2023-01-07T18:42:10.332Z,100106.81
2023-01-07T18:44:36.775Z,100105.56
2023-01-07T18:47:03.537Z,100101.38
2023-01-07T18:49:29.945Z,100106.97
2023-01-07T18:51:56.291Z,100130.06
2023-01-07T18:54:22.686Z,100132.16
2023-01-07T18:56:49.176Z,100128.63
2023-01-07T18:59:15.630Z,100131.91
2023-01-07T19:01:42.179Z,100135.03
2023-01-07T19:04:10.024Z,100150.84
2023-01-07T19:06:36.438Z,100128.38
2023-01-07T19:09:02.988Z,100137.97
2023-01-07T19:11:29.356Z,100141.69
2023-01-07T19:13:55.774Z,100133.78
2023-01-07T19:16:22.208Z,100119.25
2023-01-07T19:18:52.295Z,100136.03
2023-01-07T19:21:18.759Z,100149.56
2023-01-07T19:23:46.637Z,100146.09
2023-01-07T19:26:13.072Z,100158.56
2023-01-07T19:28:39.511Z,100167.75
2023-01-07T19:31:06.998Z,100159.88
2023-01-07T19:33:33.650Z,100144.69
2023-01-07T19:36:10.463Z,100142.19
2023-01-07T19:38:46.836Z,100146.34
2023-01-07T19:41:14.991Z,100136.81
2023-01-07T19:43:41.539Z,100137.63
2023-01-07T19:46:08.099Z,100140.78
2023-01-07T19:48:34.494Z,100140.97
2023-01-07T19:51:02.377Z,100140.13
2023-01-07T19:53:29.768Z,100143.88
2023-01-07T19:56:03.903Z,100140.34
2023-01-07T19:58:30.315Z,100123.69
2023-01-07T20:01:01.294Z,100120.56
2023-01-07T20:03:29.737Z,100114.97
2023-01-07T20:06:00.495Z,100110.59
2023-01-07T20:08:26.801Z,100118.09
2023-01-07T20:10:59.720Z,100118.09
2023-01-07T20:13:27.070Z,100117.06
2023-01-07T20:15:54.098Z,100116.41
2023-01-07T20:18:20.738Z,100118.09
2023-01-07T20:20:57.114Z,100113.72
2023-01-07T20:23:23.898Z,100106.44
2023-01-07T20:25:50.304Z,100107.28
2023-01-07T20:28:16.706Z,100103.53
2023-01-07T20:30:43.242Z,100108.09
2023-01-07T20:33:09.611Z,100106.22
2023-01-07T20:35:36.530Z,100105.19
2023-01-07T20:38:03.177Z,100095.19
2023-01-07T20:40:29.531Z,100092.50
2023-01-07T20:42:55.950Z,100093.75
2023-01-07T20:45:22.273Z,100088.94
2023-01-07T20:47:48.715Z,100091.84
2023-01-07T20:50:15.355Z,100088.72
2023-01-07T20:52:41.738Z,100087.28
2023-01-07T20:55:08.345Z,100077.09
2023-01-07T20:57:34.753Z,100070.00
2023-01-07T21:00:01.126Z,100068.97
2023-01-07T21:02:27.723Z,100062.50
2023-01-07T21:04:54.183Z,100074.38
2023-01-07T21:07:20.524Z,100072.50
2023-01-07T21:09:46.830Z,100073.75
2023-01-07T21:12:13.247Z,100074.81
2023-01-07T21:14:39.692Z,100075.81
2023-01-07T21:17:06.154Z,100065.63
2023-01-07T21:19:32.524Z,100064.78
2023-01-07T21:22:00.285Z,100067.91
2023-01-07T21:24:26.643Z,100066.03
2023-01-07T21:26:53.061Z,100060.84
2023-01-07T21:29:19.448Z,100052.72
2023-01-07T21:31:46.024Z,100047.72
2023-01-07T21:34:12.815Z,100063.13
2023-01-07T21:36:39.768Z,100066.03
2023-01-07T21:39:06.157Z,100076.84
2023-01-07T21:41:32.496Z,100069.38
2023-01-07T21:43:58.884Z,100057.28
2023-01-07T21:46:25.498Z,100067.72
2023-01-07T21:48:51.929Z,100064.16
2023-01-07T21:51:20.114Z,100063.13
2023-01-07T21:53:46.490Z,100068.53
2023-01-07T21:56:17.069Z,100066.88
2023-01-07T21:58:44.889Z,100064.81
2023-01-07T22:01:11.529Z,100052.28
2023-01-07T22:03:38.218Z,100052.94
2023-01-07T22:06:08.851Z,100036.69
2023-01-07T22:08:35.287Z,100060.00
2023-01-07T22:11:01.814Z,100054.78
2023-01-07T22:13:28.193Z,100055.44
2023-01-07T22:15:55.910Z,100060.22
2023-01-07T22:18:22.387Z,100069.81
2023-01-07T22:20:52.661Z,100062.72
2023-01-07T22:23:19.068Z,100065.63
2023-01-07T22:25:45.512Z,100069.59
2023-01-07T22:28:12.457Z,100076.47
2023-01-07T22:30:40.542Z,100063.97
2023-01-07T22:33:06.922Z,100050.00
2023-01-07T22:35:33.832Z,100027.09
2023-01-07T22:38:01.894Z,100063.13
2023-01-07T22:40:30.181Z,100070.63
2023-01-07T22:42:58.477Z,100073.97
2023-01-07T22:45:36.295Z,100069.41
2023-01-07T22:48:03.276Z,100068.56
2023-01-07T22:50:29.642Z,100069.81
2023-01-07T22:52:56.042Z,100058.34
2023-01-07T22:55:22.469Z,100058.34
2023-01-07T22:57:49.152Z,100042.75
2023-01-07T23:00:17.879Z,100051.06
2023-01-07T23:02:44.305Z,100043.75
2023-01-07T23:05:10.690Z,100036.06
2023-01-07T23:07:37.088Z,100038.16
2023-01-07T23:10:03.511Z,100037.50
2023-01-07T23:12:29.872Z,100017.75
2023-01-07T23:14:56.228Z,100029.38
2023-01-07T23:17:22.590Z,100021.06
2023-01-07T23:19:49.026Z,100021.06
2023-01-07T23:22:15.422Z,100026.28
2023-01-07T23:24:41.788Z,100023.16
2023-01-07T23:27:08.174Z,100018.56
2023-01-07T23:29:35.778Z,100014.84
2023-01-07T23:32:02.177Z,100020.25
2023-01-07T23:34:28.502Z,100029.38
2023-01-07T23:36:54.824Z,100030.25
2023-01-07T23:39:21.124Z,100020.47
2023-01-07T23:41:47.762Z,100018.16
2023-01-07T23:44:14.219Z,100021.50
2023-01-07T23:46:40.644Z,100007.31
2023-01-07T23:49:07.086Z,100004.63
2023-01-07T23:51:33.477Z,100010.25
2023-01-07T23:53:59.956Z,100004.44
2023-01-07T23:56:26.382Z,100009.19
2023-01-07T23:58:52.724Z,100008.16
